Time;durP1;ratioP1;P1;durP2;ratioP2;P2;SDS_P1;SDS_P2;PMS_P1;PMS_P2;Temp;Humidity;BMP_temperature;BMP_pressure;BME280_temperature;BME280_humidity;BME280_pressure;Samples;Min_cycle;Max_cycle;Signal;HPM_P1;HPM_P2
2022/02/16 00:00:16;;;;;;;2.00;1.10;;;6.30;94.60;;;;;;4977665;28;20473;-88
2022/02/16 00:02:42;;;;;;;1.77;1.50;;;6.30;94.60;;;;;;4981236;28;20441;-90
2022/02/16 00:05:11;;;;;;;5.67;1.37;;;6.30;94.50;;;;;;4980719;28;20512;-88
2022/02/16 00:07:39;;;;;;;4.70;1.53;;;6.30;94.60;;;;;;4980780;28;20460;-89
2022/02/16 00:10:09;;;;;;;3.70;1.33;;;6.30;94.40;;;;;;4969718;28;20460;-88
2022/02/16 00:12:36;;;;;;;4.93;1.90;;;6.30;94.40;;;;;;4958915;29;20441;-88
2022/02/16 00:15:06;;;;;;;2.63;1.23;;;6.30;94.50;;;;;;4959762;29;20440;-88
2022/02/16 00:17:33;;;;;;;3.37;1.50;;;6.30;94.30;;;;;;4959736;28;20502;-89
2022/02/16 00:20:00;;;;;;;2.83;1.90;;;6.30;94.80;;;;;;4972454;28;20476;-89
2022/02/16 00:22:27;;;;;;;2.10;1.30;;;6.30;94.40;;;;;;4967222;28;20536;-88
2022/02/16 00:24:54;;;;;;;2.33;1.30;;;6.30;94.50;;;;;;4960065;28;20472;-88
2022/02/16 00:27:21;;;;;;;2.63;1.50;;;6.30;94.40;;;;;;4962805;28;20441;-88
2022/02/16 00:29:47;;;;;;;6.23;1.20;;;6.30;94.20;;;;;;4964855;28;20449;-88
2022/02/16 00:32:15;;;;;;;3.80;1.40;;;6.30;94.40;;;;;;4969933;28;20964;-89
2022/02/16 00:34:42;;;;;;;2.77;1.60;;;6.30;94.30;;;;;;4959651;28;20488;-89
2022/02/16 00:37:09;;;;;;;4.63;1.43;;;6.30;94.40;;;;;;4960168;28;20508;-88
2022/02/16 00:39:39;;;;;;;1.40;1.23;;;6.30;94.40;;;;;;4964724;28;20521;-88
2022/02/16 00:42:06;;;;;;;5.07;1.80;;;6.30;94.40;;;;;;4958655;29;20444;-88
2022/02/16 00:44:33;;;;;;;2.40;1.27;;;6.30;94.30;;;;;;4963488;28;20452;-88
2022/02/16 00:47:00;;;;;;;5.23;1.53;;;6.40;94.50;;;;;;4962940;28;20457;-88
2022/02/16 00:49:30;;;;;;;5.23;1.63;;;6.40;94.50;;;;;;4962559;28;20476;-89
2022/02/16 00:51:57;;;;;;;2.53;1.70;;;6.40;94.40;;;;;;4958778;29;20437;-89
2022/02/16 00:54:23;;;;;;;2.40;1.87;;;6.40;94.40;;;;;;4957616;28;20449;-88
2022/02/16 00:56:50;;;;;;;4.10;1.30;;;6.50;94.40;;;;;;4957290;28;20466;-88
2022/02/16 00:59:17;;;;;;;2.63;1.30;;;6.50;94.40;;;;;;4957295;28;20480;-89
2022/02/16 01:01:44;;;;;;;2.00;1.80;;;6.50;94.40;;;;;;4972684;28;20483;-89
2022/02/16 01:04:12;;;;;;;2.20;1.70;;;6.50;94.40;;;;;;4958320;28;20445;-88
2022/02/16 01:06:48;;;;;;;2.47;1.30;;;6.60;94.40;;;;;;4956960;29;20955;-88
2022/02/16 01:09:16;;;;;;;2.70;1.37;;;6.70;94.40;;;;;;4986465;23;20503;-86
2022/02/16 01:11:43;;;;;;;3.57;1.37;;;6.70;94.50;;;;;;4996637;28;20551;-86
2022/02/16 01:14:10;;;;;;;1.20;0.90;;;6.70;94.30;;;;;;4989833;28;20913;-87
2022/02/16 01:16:36;;;;;;;4.70;1.03;;;6.70;94.40;;;;;;4978245;28;20462;-87
2022/02/16 01:19:03;;;;;;;2.20;1.50;;;6.70;94.30;;;;;;4977429;28;20468;-86
2022/02/16 01:21:30;;;;;;;1.47;1.13;;;6.70;94.60;;;;;;4976523;28;20851;-86
2022/02/16 01:23:58;;;;;;;2.00;1.33;;;6.70;94.20;;;;;;4975193;28;20455;-87
2022/02/16 01:26:25;;;;;;;2.47;1.37;;;6.80;94.30;;;;;;4975576;28;20470;-87
2022/02/16 01:28:52;;;;;;;4.87;2.30;;;6.70;94.30;;;;;;4988016;28;20790;-87
2022/02/16 01:31:18;;;;;;;2.50;1.20;;;6.80;94.40;;;;;;4994963;28;20460;-86
2022/02/16 01:33:45;;;;;;;2.53;1.03;;;6.80;94.50;;;;;;4992076;28;20447;-86
2022/02/16 01:36:12;;;;;;;3.40;1.30;;;6.80;94.50;;;;;;4980307;28;20463;-87
2022/02/16 01:38:39;;;;;;;6.00;2.17;;;6.90;94.70;;;;;;4983025;28;20472;-87
2022/02/16 01:41:07;;;;;;;6.50;1.90;;;6.90;94.70;;;;;;4994530;28;20484;-86
2022/02/16 01:43:34;;;;;;;5.40;1.57;;;6.90;94.70;;;;;;4983854;28;20459;-87
2022/02/16 01:46:01;;;;;;;3.53;1.90;;;6.90;94.70;;;;;;4979399;28;20448;-87
2022/02/16 01:48:28;;;;;;;1.87;1.10;;;7.00;94.70;;;;;;4978653;28;20476;-87
2022/02/16 01:50:57;;;;;;;4.20;1.80;;;7.00;94.60;;;;;;4975748;28;20466;-87
2022/02/16 01:53:23;;;;;;;1.40;1.00;;;7.00;94.70;;;;;;4983570;28;20527;-87
2022/02/16 01:55:54;;;;;;;2.03;1.20;;;7.00;94.70;;;;;;4977310;28;20479;-87
2022/02/16 01:58:22;;;;;;;1.13;1.03;;;6.90;94.60;;;;;;4974650;28;20463;-86
2022/02/16 02:00:49;;;;;;;3.57;1.33;;;6.90;94.60;;;;;;4975413;28;20828;-87
2022/02/16 02:03:16;;;;;;;1.63;1.23;;;6.90;94.70;;;;;;4975383;28;20452;-87
2022/02/16 02:05:44;;;;;;;3.43;1.60;;;6.90;94.70;;;;;;4974122;28;20544;-88
2022/02/16 02:08:12;;;;;;;3.47;1.40;;;6.90;94.60;;;;;;4974396;28;20483;-87
2022/02/16 02:10:38;;;;;;;3.67;1.30;;;6.90;94.60;;;;;;4974499;28;20939;-87
2022/02/16 02:13:05;;;;;;;1.50;1.07;;;6.90;94.60;;;;;;4975332;28;20451;-87
2022/02/16 02:15:36;;;;;;;2.60;1.13;;;6.90;94.60;;;;;;4974240;28;20824;-87
2022/02/16 02:18:03;;;;;;;2.03;1.37;;;6.80;94.50;;;;;;4955845;28;20472;-87
2022/02/16 02:20:31;;;;;;;2.93;1.37;;;6.80;94.50;;;;;;4961922;29;20492;-87
2022/02/16 02:23:01;;;;;;;3.37;1.13;;;6.80;94.60;;;;;;4956286;28;20441;-87
2022/02/16 02:25:28;;;;;;;2.13;1.20;;;6.80;94.60;;;;;;4954802;29;20457;-87
2022/02/16 02:27:55;;;;;;;4.70;2.70;;;6.80;94.50;;;;;;4954888;28;20457;-87
2022/02/16 02:30:21;;;;;;;3.70;1.20;;;6.90;94.60;;;;;;4954864;28;20452;-87
2022/02/16 02:32:50;;;;;;;2.87;1.47;;;6.80;94.50;;;;;;4954815;28;20461;-87
2022/02/16 02:35:17;;;;;;;2.00;1.23;;;6.80;94.40;;;;;;4954489;29;20488;-87
2022/02/16 02:37:45;;;;;;;4.10;1.40;;;6.90;94.20;;;;;;4954570;28;20453;-87
2022/02/16 02:40:12;;;;;;;2.43;1.20;;;6.90;94.30;;;;;;4954638;28;20452;-87
2022/02/16 02:42:40;;;;;;;3.00;1.20;;;6.90;94.20;;;;;;4954403;29;20448;-87
2022/02/16 02:45:09;;;;;;;1.50;1.20;;;6.90;94.20;;;;;;4954141;29;20461;-87
2022/02/16 02:47:36;;;;;;;2.17;0.83;;;6.90;94.20;;;;;;4953892;28;20451;-87
2022/02/16 02:50:03;;;;;;;1.77;1.60;;;6.90;94.30;;;;;;4954271;29;20451;-87
2022/02/16 02:52:32;;;;;;;1.30;1.10;;;6.90;94.20;;;;;;4965433;29;20444;-87
2022/02/16 02:55:00;;;;;;;1.60;1.03;;;6.90;94.30;;;;;;4974835;28;20441;-87
2022/02/16 02:57:26;;;;;;;1.77;1.40;;;6.90;94.30;;;;;;4967153;29;20437;-87
2022/02/16 02:59:53;;;;;;;3.00;1.57;;;7.00;94.20;;;;;;4966168;28;20453;-87
2022/02/16 03:02:20;;;;;;;1.13;1.03;;;7.00;94.30;;;;;;4973843;28;20487;-86
2022/02/16 03:04:46;;;;;;;3.63;1.33;;;7.00;94.50;;;;;;4977317;28;20440;-87
2022/02/16 03:07:14;;;;;;;2.47;1.20;;;7.00;94.60;;;;;;4970742;28;20461;-87
2022/02/16 03:09:41;;;;;;;2.27;1.20;;;7.00;94.50;;;;;;4957046;28;21002;-87
2022/02/16 03:12:10;;;;;;;3.43;1.40;;;7.00;94.50;;;;;;4958572;29;20512;-87
2022/02/16 03:14:37;;;;;;;1.97;1.17;;;7.00;94.50;;;;;;4956869;29;20453;-87
2022/02/16 03:17:05;;;;;;;1.73;1.20;;;7.00;94.50;;;;;;4955365;28;20449;-87
2022/02/16 03:19:31;;;;;;;3.33;2.07;;;7.00;94.60;;;;;;4958516;28;20983;-87
2022/02/16 03:21:58;;;;;;;2.20;1.03;;;7.10;94.80;;;;;;4959370;28;20496;-87
2022/02/16 03:24:25;;;;;;;1.87;1.20;;;7.00;94.90;;;;;;4958706;28;20459;-86
2022/02/16 03:26:52;;;;;;;5.60;1.20;;;7.10;95.00;;;;;;4966240;29;20827;-86
2022/02/16 03:29:20;;;;;;;1.30;0.80;;;7.10;95.00;;;;;;4981840;28;20517;-85
2022/02/16 03:31:47;;;;;;;4.17;1.50;;;7.10;95.00;;;;;;4966974;28;20956;-86
2022/02/16 03:34:14;;;;;;;4.03;1.23;;;7.10;95.00;;;;;;4963541;29;20453;-86
2022/02/16 03:36:41;;;;;;;1.50;0.80;;;7.10;95.10;;;;;;4958075;29;20449;-86
2022/02/16 03:39:09;;;;;;;2.90;1.17;;;7.10;95.20;;;;;;4957988;28;20476;-86
2022/02/16 03:41:36;;;;;;;2.03;1.07;;;7.20;95.20;;;;;;4961014;29;20485;-86
2022/02/16 03:44:03;;;;;;;2.37;1.03;;;7.20;95.20;;;;;;4968338;28;20456;-86
2022/02/16 03:46:31;;;;;;;6.47;1.63;;;7.20;95.10;;;;;;4966836;29;20447;-86
2022/02/16 03:48:58;;;;;;;4.50;1.17;;;7.20;95.20;;;;;;4957119;28;20488;-87
2022/02/16 03:51:24;;;;;;;1.67;0.87;;;7.20;95.20;;;;;;4959734;28;20444;-87
2022/02/16 03:53:51;;;;;;;2.73;1.20;;;7.20;95.10;;;;;;4966927;28;20436;-86
2022/02/16 03:56:18;;;;;;;2.00;1.13;;;7.30;95.00;;;;;;4961161;28;20444;-86
2022/02/16 03:58:45;;;;;;;3.20;1.00;;;7.30;95.00;;;;;;4957637;28;20505;-86
2022/02/16 04:01:11;;;;;;;1.60;0.80;;;7.30;94.90;;;;;;4968962;28;20479;-86
2022/02/16 04:03:40;;;;;;;2.27;1.10;;;7.30;94.90;;;;;;4974034;29;20449;-86
2022/02/16 04:06:07;;;;;;;1.50;0.87;;;7.40;94.70;;;;;;4970528;28;20449;-86
2022/02/16 04:08:34;;;;;;;2.40;1.33;;;7.40;94.70;;;;;;4972279;28;20475;-86
2022/02/16 04:11:01;;;;;;;1.10;0.70;;;7.40;94.80;;;;;;4959179;29;20445;-86
2022/02/16 04:13:28;;;;;;;1.53;0.60;;;7.40;94.60;;;;;;4957605;29;20437;-86
2022/02/16 04:15:55;;;;;;;2.20;0.90;;;7.50;94.70;;;;;;4956524;28;20460;-87
2022/02/16 04:18:21;;;;;;;2.07;0.80;;;7.50;94.60;;;;;;4956628;28;20469;-87
2022/02/16 04:20:49;;;;;;;2.40;0.77;;;7.50;94.60;;;;;;4956438;29;20923;-87
2022/02/16 04:23:16;;;;;;;1.63;0.63;;;7.50;94.60;;;;;;4956358;29;20448;-86
2022/02/16 04:25:43;;;;;;;1.00;0.80;;;7.60;94.50;;;;;;4956136;29;20504;-86
2022/02/16 04:28:09;;;;;;;1.90;1.27;;;7.60;94.40;;;;;;4955516;28;20872;-86
2022/02/16 04:30:36;;;;;;;1.20;0.70;;;7.60;94.60;;;;;;4955794;28;20986;-87
2022/02/16 04:33:03;;;;;;;2.40;0.73;;;7.60;94.70;;;;;;4956038;29;20456;-87
2022/02/16 04:35:30;;;;;;;1.63;0.70;;;7.60;94.70;;;;;;4955748;29;20459;-87
2022/02/16 04:37:58;;;;;;;2.80;0.93;;;7.70;94.70;;;;;;4955952;28;20484;-87
2022/02/16 04:40:25;;;;;;;1.10;0.60;;;7.60;94.70;;;;;;4956023;29;20441;-86
2022/02/16 04:42:52;;;;;;;0.73;0.73;;;7.60;94.80;;;;;;4955480;29;21011;-86
2022/02/16 04:45:19;;;;;;;1.23;1.00;;;7.70;94.80;;;;;;4955717;29;20437;-87
2022/02/16 04:47:45;;;;;;;1.27;0.70;;;7.70;94.90;;;;;;4956591;28;20449;-86
2022/02/16 04:50:12;;;;;;;1.83;0.80;;;7.70;94.90;;;;;;4959108;29;20459;-86
2022/02/16 04:52:39;;;;;;;2.00;1.27;;;7.70;95.00;;;;;;4959103;28;20464;-87
2022/02/16 04:55:09;;;;;;;1.83;0.87;;;7.70;95.10;;;;;;4975596;28;20449;-87
2022/02/16 04:57:36;;;;;;;2.90;1.00;;;7.80;95.20;;;;;;4978417;28;20445;-87
2022/02/16 05:00:05;;;;;;;2.70;0.70;;;7.80;95.20;;;;;;4971603;29;20557;-86
2022/02/16 05:02:32;;;;;;;1.03;0.70;;;7.80;95.20;;;;;;4966262;28;20568;-87
2022/02/16 05:04:59;;;;;;;3.37;0.90;;;7.70;95.20;;;;;;4958442;28;20437;-87
2022/02/16 05:07:26;;;;;;;1.53;0.70;;;7.80;95.40;;;;;;4956591;28;20465;-87
2022/02/16 05:09:53;;;;;;;1.50;0.60;;;7.80;95.40;;;;;;4955759;28;20492;-88
2022/02/16 05:12:23;;;;;;;3.50;0.70;;;7.70;95.40;;;;;;4955499;28;20449;-88
2022/02/16 05:14:50;;;;;;;0.90;0.70;;;7.80;95.50;;;;;;4957225;29;20448;-87
2022/02/16 05:17:17;;;;;;;1.10;0.70;;;7.80;95.60;;;;;;4969043;29;20445;-87
2022/02/16 05:19:44;;;;;;;1.57;0.70;;;7.80;95.60;;;;;;4976474;28;20484;-88
2022/02/16 05:22:11;;;;;;;0.97;0.60;;;7.80;95.70;;;;;;4958589;28;20500;-88
2022/02/16 05:24:38;;;;;;;1.53;0.70;;;7.80;95.80;;;;;;4955594;29;20897;-88
2022/02/16 05:27:05;;;;;;;0.97;0.87;;;7.80;95.90;;;;;;4957093;28;20449;-88
2022/02/16 05:29:33;;;;;;;0.83;0.60;;;7.80;95.90;;;;;;4955447;28;20476;-88
2022/02/16 05:32:00;;;;;;;3.03;0.90;;;7.80;95.90;;;;;;4955067;28;20464;-88
2022/02/16 05:34:27;;;;;;;2.17;1.10;;;7.80;96.00;;;;;;4954806;29;20457;-88
2022/02/16 05:36:54;;;;;;;0.90;0.70;;;7.80;96.00;;;;;;4955400;28;20457;-88
2022/02/16 05:39:25;;;;;;;0.70;0.40;;;7.90;96.00;;;;;;4956620;28;20874;-88
2022/02/16 05:41:52;;;;;;;2.20;0.80;;;7.90;96.10;;;;;;4955423;29;20852;-88
2022/02/16 05:44:19;;;;;;;1.60;0.93;;;7.90;96.10;;;;;;4956714;28;20453;-88
2022/02/16 05:46:47;;;;;;;3.30;0.73;;;7.80;96.10;;;;;;4963585;28;20564;-88
2022/02/16 05:49:14;;;;;;;1.50;0.70;;;7.80;96.20;;;;;;4977996;28;20547;-87
2022/02/16 05:51:40;;;;;;;2.53;0.60;;;7.80;96.20;;;;;;4967355;28;20475;-88
2022/02/16 05:54:07;;;;;;;1.27;0.70;;;7.80;96.30;;;;;;4954837;29;20456;-88
2022/02/16 05:56:34;;;;;;;1.03;0.63;;;7.80;96.40;;;;;;4955178;29;20944;-88
2022/02/16 05:59:01;;;;;;;4.47;0.97;;;7.80;96.40;;;;;;4954526;28;20468;-88
2022/02/16 06:01:27;;;;;;;2.10;0.80;;;7.80;96.60;;;;;;4955523;28;20457;-88
2022/02/16 06:03:55;;;;;;;7.30;6.80;;;7.80;96.70;;;;;;4954690;28;20467;-88
2022/02/16 06:06:22;;;;;;;1.53;0.70;;;7.80;96.60;;;;;;4954618;28;20864;-88
2022/02/16 06:08:49;;;;;;;2.53;1.10;;;7.90;96.80;;;;;;4954484;28;20465;-88
2022/02/16 06:11:16;;;;;;;2.73;0.97;;;7.80;96.70;;;;;;4954489;29;20972;-88
2022/02/16 06:13:42;;;;;;;3.70;0.80;;;7.80;96.70;;;;;;4954526;29;20460;-88
2022/02/16 06:16:09;;;;;;;3.60;1.10;;;7.80;96.70;;;;;;4955586;28;20456;-88
2022/02/16 06:18:36;;;;;;;3.70;1.60;;;7.80;96.80;;;;;;4955296;28;20464;-88
2022/02/16 06:21:04;;;;;;;2.40;0.90;;;7.90;96.90;;;;;;4955681;29;20455;-88
2022/02/16 06:23:31;;;;;;;1.33;0.70;;;7.90;96.90;;;;;;4954320;29;20875;-88
2022/02/16 06:25:58;;;;;;;1.90;1.00;;;7.90;97.00;;;;;;4953885;28;20453;-87
2022/02/16 06:28:24;;;;;;;4.87;0.73;;;7.90;96.90;;;;;;4955017;28;20484;-88
2022/02/16 06:30:52;;;;;;;1.53;0.60;;;7.80;96.90;;;;;;4955036;28;20468;-87
2022/02/16 06:33:19;;;;;;;2.40;0.70;;;7.90;97.00;;;;;;4955559;29;20484;-87
2022/02/16 06:35:46;;;;;;;1.17;0.57;;;7.90;97.10;;;;;;4967492;28;20637;-88
2022/02/16 06:38:14;;;;;;;1.10;0.43;;;7.90;97.10;;;;;;4966894;28;20473;-88
2022/02/16 06:40:44;;;;;;;1.20;0.60;;;7.90;97.10;;;;;;4966297;29;20457;-87
2022/02/16 06:43:11;;;;;;;0.80;0.60;;;8.00;97.20;;;;;;4970096;28;20484;-87
2022/02/16 06:45:38;;;;;;;0.80;0.70;;;8.00;97.30;;;;;;4964965;29;20451;-87
2022/02/16 06:48:05;;;;;;;2.20;0.60;;;8.00;97.20;;;;;;4959692;28;20502;-88
2022/02/16 06:50:34;;;;;;;0.70;0.60;;;8.00;97.30;;;;;;4975672;28;20436;-87
2022/02/16 06:53:01;;;;;;;1.70;1.40;;;8.00;97.20;;;;;;4962665;28;20451;-88
2022/02/16 06:55:30;;;;;;;0.70;0.53;;;8.00;97.30;;;;;;4965424;28;20448;-88
2022/02/16 06:57:57;;;;;;;0.80;0.60;;;8.00;97.30;;;;;;4965193;28;20472;-87
2022/02/16 07:00:24;;;;;;;2.67;0.80;;;8.10;97.30;;;;;;4959815;29;20460;-88
2022/02/16 07:02:51;;;;;;;0.63;0.50;;;8.10;97.40;;;;;;4970279;28;20500;-88
2022/02/16 07:05:18;;;;;;;1.97;0.70;;;8.10;97.30;;;;;;4966421;28;20459;-88
2022/02/16 07:07:47;;;;;;;2.00;0.87;;;8.10;97.50;;;;;;4982027;28;20433;-87
2022/02/16 07:10:14;;;;;;;1.20;0.57;;;8.10;97.60;;;;;;4984417;23;20487;-86
2022/02/16 07:12:42;;;;;;;6.63;1.17;;;8.00;97.70;;;;;;4973003;28;20472;-86
2022/02/16 07:15:11;;;;;;;2.40;0.60;;;8.00;97.90;;;;;;4963879;29;20815;-87
2022/02/16 07:17:40;;;;;;;1.63;0.57;;;7.90;98.30;;;;;;4964407;28;20452;-86
2022/02/16 07:20:08;;;;;;;1.73;0.83;;;7.90;98.60;;;;;;4960656;28;20511;-87
2022/02/16 07:22:39;;;;;;;0.90;0.70;;;7.90;98.70;;;;;;4961714;28;20493;-87
2022/02/16 07:25:06;;;;;;;0.80;0.70;;;7.90;98.70;;;;;;4964969;29;20457;-88
2022/02/16 07:27:33;;;;;;;1.80;1.00;;;7.90;98.70;;;;;;4973293;28;20468;-87
2022/02/16 07:30:01;;;;;;;1.07;0.60;;;7.90;98.90;;;;;;4962918;28;20468;-84
2022/02/16 07:32:28;;;;;;;1.03;0.60;;;7.80;99.20;;;;;;4960789;28;20464;-87
2022/02/16 07:34:55;;;;;;;1.67;0.70;;;7.80;99.10;;;;;;4976645;28;20915;-87
2022/02/16 07:37:21;;;;;;;1.10;0.67;;;7.80;99.90;;;;;;4961598;28;20457;-87
2022/02/16 07:39:48;;;;;;;0.63;0.50;;;7.80;99.60;;;;;;4961493;28;20469;-87
2022/02/16 07:42:15;;;;;;;1.33;0.63;;;7.70;99.90;;;;;;4959236;28;20473;-87
2022/02/16 07:44:42;;;;;;;1.30;0.83;;;7.60;99.90;;;;;;4970648;28;20442;-87
2022/02/16 07:47:10;;;;;;;3.00;0.77;;;7.60;99.90;;;;;;4961726;28;20448;-84
2022/02/16 07:49:37;;;;;;;0.60;0.57;;;7.50;99.90;;;;;;4960343;28;20480;-87
2022/02/16 07:52:04;;;;;;;1.80;0.73;;;7.50;99.90;;;;;;4960026;28;20453;-87
2022/02/16 07:54:31;;;;;;;1.27;0.80;;;7.40;99.90;;;;;;4959499;29;20457;-87
2022/02/16 07:56:58;;;;;;;1.07;0.70;;;7.40;99.90;;;;;;4969485;29;20477;-87
2022/02/16 07:59:25;;;;;;;1.63;0.97;;;7.40;99.90;;;;;;4968267;28;20480;-86
2022/02/16 08:01:51;;;;;;;1.00;0.90;;;7.40;99.90;;;;;;4965357;28;20511;-88
2022/02/16 08:04:19;;;;;;;3.17;1.07;;;7.30;99.90;;;;;;4963562;28;20449;-87
2022/02/16 08:06:48;;;;;;;3.00;1.20;;;7.30;99.90;;;;;;4962499;29;20452;-87
2022/02/16 08:09:15;;;;;;;1.20;0.80;;;7.30;99.90;;;;;;4962280;28;20530;-86
2022/02/16 08:11:44;;;;;;;1.60;1.10;;;7.30;99.90;;;;;;4965697;29;20535;-87
2022/02/16 08:14:11;;;;;;;4.20;0.93;;;7.30;99.90;;;;;;4959317;29;20441;-87
2022/02/16 08:16:38;;;;;;;0.90;0.70;;;7.30;99.90;;;;;;4959656;28;20461;-86
2022/02/16 08:19:07;;;;;;;1.10;1.00;;;7.30;99.90;;;;;;4965266;28;20469;-87
2022/02/16 08:21:35;;;;;;;1.20;0.73;;;7.30;99.90;;;;;;4964679;29;20452;-87
2022/02/16 08:24:03;;;;;;;0.70;0.70;;;7.30;99.90;;;;;;4980157;28;20499;-85
2022/02/16 08:26:30;;;;;;;1.70;0.90;;;7.30;99.90;;;;;;4974064;28;20455;-87
2022/02/16 08:28:57;;;;;;;1.13;0.90;;;7.30;99.90;;;;;;4976093;28;20453;-85
2022/02/16 08:31:23;;;;;;;1.93;0.67;;;7.30;99.90;;;;;;4976828;28;20447;-86
2022/02/16 08:33:50;;;;;;;3.20;1.93;;;7.30;99.90;;;;;;4969424;29;20940;-86
2022/02/16 08:36:17;;;;;;;0.97;0.70;;;7.20;99.90;;;;;;4964933;29;20455;-87
2022/02/16 08:38:46;;;;;;;1.87;1.10;;;7.20;99.90;;;;;;4978950;28;20559;-85
2022/02/16 08:41:14;;;;;;;1.33;1.07;;;7.20;99.90;;;;;;4978878;28;20511;-86
2022/02/16 08:43:42;;;;;;;1.73;0.80;;;7.20;99.90;;;;;;4972420;29;20485;-86
2022/02/16 08:46:09;;;;;;;2.10;0.70;;;7.20;99.90;;;;;;4974578;28;20456;-86
2022/02/16 08:48:36;;;;;;;3.77;1.00;;;7.20;99.90;;;;;;4960511;28;20473;-86
2022/02/16 08:51:03;;;;;;;1.50;0.70;;;7.20;99.90;;;;;;4958637;29;20525;-87
2022/02/16 08:53:30;;;;;;;1.23;1.10;;;7.30;99.90;;;;;;4957917;28;20453;-87
2022/02/16 08:55:59;;;;;;;1.00;0.60;;;7.30;99.90;;;;;;4958642;28;20465;-87
2022/02/16 08:58:26;;;;;;;1.97;1.47;;;7.20;99.90;;;;;;4960835;28;20477;-87
2022/02/16 09:00:53;;;;;;;3.13;1.03;;;7.20;99.90;;;;;;4959445;29;20547;-87
2022/02/16 09:03:20;;;;;;;1.20;0.80;;;7.20;99.90;;;;;;4959081;29;21002;-85
2022/02/16 09:05:48;;;;;;;0.73;0.73;;;7.20;99.90;;;;;;4959571;28;20468;-85
2022/02/16 09:08:15;;;;;;;2.23;1.10;;;7.20;99.90;;;;;;4956237;28;20460;-86
2022/02/16 09:10:42;;;;;;;1.80;0.83;;;7.20;99.90;;;;;;4962091;28;20669;-85
2022/02/16 09:13:10;;;;;;;1.10;0.70;;;7.20;99.90;;;;;;4968307;28;20452;-85
2022/02/16 09:15:37;;;;;;;1.13;0.70;;;7.20;99.90;;;;;;4960698;28;20461;-86
2022/02/16 09:18:06;;;;;;;2.33;1.00;;;7.30;99.90;;;;;;4963623;28;20866;-85
2022/02/16 09:20:33;;;;;;;0.80;0.70;;;7.20;99.90;;;;;;4957869;29;20485;-85
2022/02/16 09:23:01;;;;;;;1.00;0.70;;;7.20;99.90;;;;;;4957738;28;20492;-86
2022/02/16 09:25:28;;;;;;;0.87;0.73;;;7.20;99.90;;;;;;4966618;29;20456;-85
2022/02/16 09:27:55;;;;;;;0.90;0.70;;;7.20;99.90;;;;;;4976692;29;20456;-86
2022/02/16 09:30:23;;;;;;;1.90;1.00;;;7.20;99.90;;;;;;4963909;28;20475;-86
2022/02/16 09:32:50;;;;;;;8.40;1.13;;;7.30;99.90;;;;;;4962595;29;20449;-86
2022/02/16 09:35:17;;;;;;;3.63;0.90;;;7.20;99.90;;;;;;4963528;28;20956;-86
2022/02/16 09:37:44;;;;;;;1.63;1.27;;;7.30;99.90;;;;;;4964983;28;20441;-86
2022/02/16 09:40:11;;;;;;;1.10;0.97;;;7.30;99.90;;;;;;4962155;28;20476;-85
2022/02/16 09:42:40;;;;;;;2.80;0.83;;;7.30;99.90;;;;;;4959085;28;20804;-86
2022/02/16 09:45:09;;;;;;;1.10;0.67;;;7.40;99.90;;;;;;4967018;29;20441;-86
2022/02/16 09:47:41;;;;;;;4.83;0.80;;;7.40;99.90;;;;;;4960901;28;20500;-86
2022/02/16 09:50:08;;;;;;;3.17;0.83;;;7.50;99.90;;;;;;4960308;28;20472;-86
2022/02/16 09:52:35;;;;;;;1.37;0.80;;;7.50;99.90;;;;;;4958558;29;20963;-86
2022/02/16 09:55:04;;;;;;;1.63;1.30;;;7.60;99.90;;;;;;4967148;28;20512;-86
2022/02/16 09:57:31;;;;;;;0.70;0.60;;;7.70;99.90;;;;;;4961885;29;20453;-87
2022/02/16 09:59:57;;;;;;;2.40;0.80;;;7.70;99.90;;;;;;4959290;28;20488;-87
2022/02/16 10:02:37;;;;;;;0.70;0.60;;;7.80;99.90;;;;;;4959747;29;20449;-88
2022/02/16 10:05:05;;;;;;;1.10;0.80;;;7.90;99.90;;;;;;4962453;29;20441;-86
2022/02/16 10:07:35;;;;;;;1.07;0.70;;;7.90;99.90;;;;;;4973975;28;20453;-86
2022/02/16 10:10:16;;;;;;;2.10;0.90;;;8.00;99.90;;;;;;4959811;28;20480;-86
2022/02/16 10:12:47;;;;;;;2.67;0.90;;;8.10;99.90;;;;;;4958375;29;20459;-86
2022/02/16 10:15:15;;;;;;;2.03;0.70;;;8.20;99.90;;;;;;4959755;29;20865;-86
2022/02/16 10:17:44;;;;;;;1.00;0.80;;;8.20;99.90;;;;;;4958751;29;20449;-86
2022/02/16 10:20:13;;;;;;;2.03;0.60;;;8.40;99.90;;;;;;4966163;28;20479;-85
2022/02/16 10:22:42;;;;;;;1.23;0.50;;;8.50;99.90;;;;;;4975059;28;20447;-85
2022/02/16 10:25:11;;;;;;;0.90;0.70;;;8.50;99.90;;;;;;4972860;28;20460;-86
2022/02/16 10:27:39;;;;;;;0.97;0.60;;;8.60;99.90;;;;;;4963855;28;20552;-87
2022/02/16 10:30:14;;;;;;;1.40;0.73;;;8.70;99.90;;;;;;4967280;28;21139;-87
2022/02/16 10:32:41;;;;;;;1.17;0.43;;;8.70;99.90;;;;;;4983451;28;20895;-87
2022/02/16 10:35:09;;;;;;;1.00;0.57;;;8.80;99.90;;;;;;4982497;28;20440;-86
2022/02/16 10:37:37;;;;;;;0.63;0.60;;;8.90;99.90;;;;;;4982255;28;20421;-86
2022/02/16 10:40:14;;;;;;;1.30;0.80;;;8.90;99.90;;;;;;4982120;28;20471;-85
2022/02/16 10:42:52;;;;;;;0.87;0.70;;;9.00;99.90;;;;;;4969211;28;20879;-87
2022/02/16 10:45:21;;;;;;;0.70;0.57;;;9.10;99.90;;;;;;4980683;28;20440;-84
2022/02/16 10:47:52;;;;;;;1.50;0.57;;;9.20;99.90;;;;;;4982375;28;20425;-85
2022/02/16 10:50:22;;;;;;;1.00;0.70;;;9.20;99.90;;;;;;4982587;28;20469;-86
2022/02/16 10:52:55;;;;;;;0.83;0.40;;;9.40;99.90;;;;;;4981222;28;20429;-86
2022/02/16 10:55:39;;;;;;;1.80;0.80;;;9.50;99.90;;;;;;4975337;29;20452;-86
2022/02/16 10:58:07;;;;;;;1.30;0.90;;;9.70;99.90;;;;;;4974294;28;20959;-86
2022/02/16 11:00:35;;;;;;;1.63;0.70;;;9.90;99.90;;;;;;4970826;28;20447;-87
2022/02/16 11:03:03;;;;;;;0.93;0.50;;;10.00;99.90;;;;;;4969274;29;20440;-85
2022/02/16 11:05:32;;;;;;;1.37;0.77;;;9.90;99.90;;;;;;4962155;28;20485;-85
2022/02/16 11:08:03;;;;;;;2.63;0.57;;;10.00;99.90;;;;;;4964205;29;20460;-87
2022/02/16 11:10:30;;;;;;;0.73;0.50;;;10.10;99.90;;;;;;4963902;29;20463;-87
2022/02/16 11:12:58;;;;;;;0.90;0.50;;;10.10;99.90;;;;;;4961969;28;20455;-87
2022/02/16 11:15:25;;;;;;;3.93;0.70;;;10.20;99.90;;;;;;4963247;28;20445;-87
2022/02/16 11:17:52;;;;;;;3.30;0.60;;;10.10;99.90;;;;;;4963603;28;20825;-86
2022/02/16 11:20:21;;;;;;;0.97;0.50;;;10.10;99.90;;;;;;4964543;28;20472;-87
2022/02/16 11:22:52;;;;;;;0.87;0.80;;;10.10;99.90;;;;;;4960710;28;20449;-86
2022/02/16 11:25:30;;;;;;;1.23;0.70;;;10.20;99.90;;;;;;4961583;29;20539;-86
2022/02/16 11:27:59;;;;;;;0.80;0.60;;;10.30;99.90;;;;;;4964128;29;20449;-87
2022/02/16 11:30:31;;;;;;;2.80;0.70;;;10.40;99.90;;;;;;4973859;28;20472;-86
2022/02/16 11:33:12;;;;;;;0.87;0.70;;;10.40;99.90;;;;;;4961968;29;20457;-86
2022/02/16 11:35:54;;;;;;;3.07;1.40;;;10.70;99.90;;;;;;4960545;29;20947;-87
2022/02/16 11:38:24;;;;;;;2.50;0.83;;;10.70;99.90;;;;;;4960684;28;20458;-87
2022/02/16 11:40:54;;;;;;;1.10;0.80;;;10.90;99.90;;;;;;4960033;28;20447;-87
2022/02/16 11:43:24;;;;;;;1.63;1.00;;;11.10;99.90;;;;;;4970700;29;20456;-86
2022/02/16 11:46:00;;;;;;;0.97;0.80;;;11.20;99.90;;;;;;4971970;29;20480;-86
2022/02/16 11:48:42;;;;;;;0.70;0.60;;;11.20;99.90;;;;;;4966600;28;20500;-86
2022/02/16 11:51:34;;;;;;;0.67;0.60;;;11.30;99.90;;;;;;4965825;29;20460;-87
2022/02/16 11:54:34;;;;;;;2.00;0.57;;;11.20;99.90;;;;;;4961986;29;20477;-86
2022/02/16 11:57:38;;;;;;;1.80;0.67;;;11.20;99.90;;;;;;4963788;29;20441;-86
2022/02/16 12:00:11;;;;;;;0.83;0.77;;;11.10;99.90;;;;;;4966852;28;20515;-87
2022/02/16 12:03:09;;;;;;;1.20;0.97;;;11.10;99.90;;;;;;4960648;29;20452;-86
2022/02/16 12:05:45;;;;;;;1.47;0.57;;;11.20;99.90;;;;;;4972884;29;20451;-87
2022/02/16 12:08:13;;;;;;;1.47;0.93;;;11.20;99.90;;;;;;4973222;28;20457;-87
2022/02/16 12:10:44;;;;;;;0.70;0.70;;;11.10;99.90;;;;;;4964912;28;20460;-87
2022/02/16 12:13:11;;;;;;;0.73;0.50;;;11.20;99.90;;;;;;4962091;29;20460;-86
2022/02/16 12:15:39;;;;;;;1.00;0.77;;;11.20;99.90;;;;;;4961688;29;20472;-86
2022/02/16 12:18:12;;;;;;;0.87;0.80;;;11.30;99.90;;;;;;4962400;28;20453;-87
2022/02/16 12:20:40;;;;;;;1.50;0.93;;;11.20;99.90;;;;;;4962578;29;20507;-87
2022/02/16 12:23:07;;;;;;;1.03;0.80;;;11.10;99.90;;;;;;4961436;28;20457;-86
2022/02/16 12:25:35;;;;;;;1.50;0.60;;;11.10;99.90;;;;;;4960935;29;20489;-87
2022/02/16 12:28:04;;;;;;;2.20;0.93;;;11.20;99.90;;;;;;4969495;28;20449;-85
2022/02/16 12:30:36;;;;;;;1.70;0.90;;;11.30;99.90;;;;;;4977866;29;20445;-86
2022/02/16 12:33:20;;;;;;;0.60;0.47;;;11.40;99.90;;;;;;4964731;29;20445;-87
2022/02/16 12:35:47;;;;;;;2.93;0.73;;;11.30;99.90;;;;;;4964026;29;20511;-86
2022/02/16 12:38:21;;;;;;;2.50;0.50;;;11.20;99.90;;;;;;4961225;28;20457;-85
2022/02/16 12:40:47;;;;;;;0.63;0.50;;;11.10;99.90;;;;;;4960437;29;20448;-85
2022/02/16 12:43:15;;;;;;;1.13;0.50;;;11.00;99.90;;;;;;4972176;28;20437;-83
2022/02/16 12:45:42;;;;;;;2.17;0.60;;;11.00;99.90;;;;;;4968219;28;20491;-86
2022/02/16 12:48:12;;;;;;;0.93;0.63;;;11.10;99.90;;;;;;4971321;28;20425;-86
2022/02/16 12:50:39;;;;;;;0.73;0.40;;;11.20;99.90;;;;;;4959449;28;20463;-87
2022/02/16 12:53:07;;;;;;;2.47;0.70;;;11.30;99.90;;;;;;4961372;28;20455;-87
2022/02/16 12:55:41;;;;;;;0.80;0.57;;;11.30;99.90;;;;;;4959715;28;20505;-87
2022/02/16 12:58:07;;;;;;;0.60;0.57;;;11.20;99.90;;;;;;4959902;28;20476;-87
2022/02/16 13:00:51;;;;;;;0.90;0.50;;;11.20;99.90;;;;;;4959185;29;20449;-87